Terminal Aerodrome Forecast
Issued by NWS Binghamton, NY

Home | Current Version | Previous Version | Text Only | Print | Product List | Glossary On
Versions: 1 2 3 4 5 6 7 8 9 10 11 12 13 14 15 16 17 18 19 20 21 22 23
000
FTUS41 KBGM 011700
TAFAVP
TAF
KAVP 011720Z 0118/0218 25004KT P6SM OVC035
      TEMPO 0118/0120 2SM -SN OVC015
     FM012000 VRB04KT 1SM -SN OVC015
     FM020300 12006KT 1SM -SN OVC007
      TEMPO 0208/0212 2SM -SNPL=

USA.gov is the U.S. government's official web portal to all federal, state and local government web resources and services.